OCN8G EINN-EDDF
Flight info
| Callsign | OCN8G |
|---|---|
| Flight time | N/A |
| Altitude | 39000 |
| Route | ABAGU3B ABAGU DCT ENJEX DCT AVZAC DCT ICOSA DCT RUHUN DCT UNZIB DCT NUCHU L607 KONAN UL607 SPI T180 NIVNU T847 IMCOM IMCOM2C |
| Aircraft | A320/M-SDE3FGHIRWY/LB1 |
Departure
| Time | 2026-05-07 18:56 |
|---|---|
| Airport | Shannon Airport (EINN) |
Arrival
| Time | N/A |
|---|---|
| Airport | Frankfurt Main Airport (EDDF) |
| Time | Latitude | Longitude | Altitude | Speed | Heading |
|---|---|---|---|---|---|
| 2026-05-07 18:47 | 52.69454 | -8.91968 | 23 ft | 4 kts | 104° |
| 2026-05-07 18:47 | 52.69438 | -8.91879 | 21 ft | 10 kts | 108° |
| 2026-05-07 18:47 | 52.69404 | -8.91787 | 20 ft | 9 kts | 137° |
| 2026-05-07 18:47 | 52.69350 | -8.91750 | 20 ft | 8 kts | 163° |
| 2026-05-07 18:48 | 52.69302 | -8.91691 | 20 ft | 11 kts | 132° |
| 2026-05-07 18:48 | 52.69255 | -8.91583 | 20 ft | 11 kts | 102° |
| 2026-05-07 18:48 | 52.69302 | -8.91508 | 19 ft | 10 kts | 20° |
| 2026-05-07 18:48 | 52.69372 | -8.91467 | 18 ft | 11 kts | 19° |
| 2026-05-07 18:49 | 52.69449 | -8.91424 | 18 ft | 13 kts | 19° |
| 2026-05-07 18:49 | 52.69539 | -8.91374 | 17 ft | 15 kts | 17° |
| 2026-05-07 18:49 | 52.69645 | -8.91317 | 16 ft | 17 kts | 18° |
| 2026-05-07 18:49 | 52.69763 | -8.91250 | 15 ft | 19 kts | 18° |
| 2026-05-07 18:50 | 52.69900 | -8.91177 | 15 ft | 22 kts | 18° |
| 2026-05-07 18:50 | 52.70053 | -8.91089 | 14 ft | 25 kts | 19° |
| 2026-05-07 18:50 | 52.70215 | -8.90999 | 12 ft | 24 kts | 18° |
| 2026-05-07 18:50 | 52.70382 | -8.90907 | 10 ft | 25 kts | 18° |
| 2026-05-07 18:51 | 52.70522 | -8.90830 | 8 ft | 22 kts | 18° |
| 2026-05-07 18:51 | 52.70666 | -8.90750 | 7 ft | 22 kts | 18° |
| 2026-05-07 18:51 | 52.70810 | -8.90671 | 6 ft | 17 kts | 15° |
| 2026-05-07 18:51 | 52.70887 | -8.90689 | 5 ft | 7 kts | 326° |
| 2026-05-07 18:52 | 52.70901 | -8.90705 | 5 ft | 0 kts | 323° |
| 2026-05-07 18:52 | 52.70901 | -8.90706 | 5 ft | 1 kts | 323° |
| 2026-05-07 18:52 | 52.70932 | -8.90743 | 5 ft | 10 kts | 323° |
| 2026-05-07 18:53 | 52.70959 | -8.90861 | 5 ft | 13 kts | 244° |
| 2026-05-07 18:53 | 52.70938 | -8.90908 | 5 ft | 0 kts | 231° |
| 2026-05-07 18:55 | 52.70795 | -8.91210 | 7 ft | 73 kts | 233° |
| 2026-05-07 18:55 | 52.70349 | -8.92164 | 17 ft | 134 kts | 232° |
| 2026-05-07 18:55 | 52.69723 | -8.93515 | 434 ft | 149 kts | 233° |
| 2026-05-07 18:56 | 52.69086 | -8.94861 | 1275 ft | 150 kts | 228° |
| 2026-05-07 18:56 | 52.68139 | -8.95705 | 1818 ft | 170 kts | 189° |
| 2026-05-07 18:56 | 52.66907 | -8.95459 | 2412 ft | 183 kts | 173° |
| 2026-05-07 18:56 | 52.65641 | -8.95056 | 3143 ft | 187 kts | 173° |
| 2026-05-07 18:57 | 52.64363 | -8.94654 | 3857 ft | 188 kts | 173° |
| 2026-05-07 18:57 | 52.63077 | -8.94253 | 4561 ft | 189 kts | 172° |
| 2026-05-07 18:57 | 52.61780 | -8.93849 | 5244 ft | 190 kts | 172° |
| 2026-05-07 18:57 | 52.60488 | -8.93271 | 5891 ft | 196 kts | 154° |
| 2026-05-07 18:58 | 52.59489 | -8.91706 | 6493 ft | 207 kts | 123° |
| 2026-05-07 18:58 | 52.59083 | -8.89307 | 6775 ft | 233 kts | 98° |
| 2026-05-07 18:58 | 52.58907 | -8.86556 | 7132 ft | 253 kts | 98° |
| 2026-05-07 18:58 | 52.58726 | -8.83613 | 7803 ft | 262 kts | 97° |
| 2026-05-07 18:59 | 52.58542 | -8.80614 | 8656 ft | 265 kts | 97° |
| 2026-05-07 18:59 | 52.58354 | -8.77577 | 9504 ft | 269 kts | 97° |
| 2026-05-07 18:59 | 52.58160 | -8.74505 | 10291 ft | 273 kts | 98° |
| 2026-05-07 18:59 | 52.57956 | -8.71372 | 11028 ft | 277 kts | 98° |
| 2026-05-07 19:00 | 52.57746 | -8.68192 | 11751 ft | 282 kts | 98° |
| 2026-05-07 19:00 | 52.57531 | -8.64961 | 12481 ft | 286 kts | 98° |
| 2026-05-07 19:00 | 52.57309 | -8.61677 | 13161 ft | 295 kts | 99° |
| 2026-05-07 19:00 | 52.57027 | -8.58210 | 13460 ft | 317 kts | 102° |
| 2026-05-07 19:01 | 52.56604 | -8.54515 | 13714 ft | 341 kts | 104° |
| 2026-05-07 19:01 | 52.56097 | -8.50578 | 13882 ft | 364 kts | 105° |
| 2026-05-07 19:01 | 52.55537 | -8.46395 | 14022 ft | 386 kts | 105° |
| 2026-05-07 19:01 | 52.54946 | -8.41984 | 14237 ft | 403 kts | 104° |
| 2026-05-07 19:02 | 52.54344 | -8.37432 | 14785 ft | 410 kts | 104° |
| 2026-05-07 19:02 | 52.53744 | -8.32831 | 15398 ft | 413 kts | 104° |
| 2026-05-07 19:02 | 52.53148 | -8.28211 | 16012 ft | 416 kts | 104° |
| 2026-05-07 19:02 | 52.52548 | -8.23544 | 16617 ft | 420 kts | 104° |
| 2026-05-07 19:03 | 52.51939 | -8.18833 | 17222 ft | 423 kts | 105° |
| 2026-05-07 19:03 | 52.51323 | -8.14096 | 17814 ft | 426 kts | 105° |
| 2026-05-07 19:03 | 52.50702 | -8.09326 | 18382 ft | 429 kts | 105° |
| 2026-05-07 19:03 | 52.50074 | -8.04521 | 18875 ft | 432 kts | 105° |
| 2026-05-07 19:04 | 52.49439 | -7.99687 | 19374 ft | 435 kts | 105° |
| 2026-05-07 19:04 | 52.48795 | -7.94833 | 19875 ft | 437 kts | 105° |
| 2026-05-07 19:04 | 52.48143 | -7.89938 | 20392 ft | 439 kts | 105° |
| 2026-05-07 19:04 | 52.47486 | -7.85025 | 20873 ft | 442 kts | 105° |
| 2026-05-07 19:05 | 52.46825 | -7.80102 | 21332 ft | 445 kts | 105° |
| 2026-05-07 19:05 | 52.46155 | -7.75129 | 21784 ft | 447 kts | 105° |
| 2026-05-07 19:05 | 52.45474 | -7.70077 | 22230 ft | 450 kts | 105° |
| 2026-05-07 19:05 | 52.44795 | -7.65052 | 22663 ft | 453 kts | 105° |
| 2026-05-07 19:06 | 52.44119 | -7.60072 | 23096 ft | 455 kts | 105° |
| 2026-05-07 19:06 | 52.42731 | -7.49891 | 23888 ft | 460 kts | 105° |
| 2026-05-07 19:06 | 52.42020 | -7.44705 | 24233 ft | 462 kts | 105° |
| 2026-05-07 19:07 | 52.41310 | -7.39557 | 24575 ft | 464 kts | 105° |
| 2026-05-07 19:07 | 52.40605 | -7.34453 | 24906 ft | 466 kts | 105° |
| 2026-05-07 19:07 | 52.39889 | -7.29269 | 25244 ft | 468 kts | 105° |
| 2026-05-07 19:07 | 52.39169 | -7.24063 | 25572 ft | 470 kts | 105° |
| 2026-05-07 19:08 | 52.38440 | -7.18830 | 25895 ft | 472 kts | 105° |
| 2026-05-07 19:08 | 52.37709 | -7.13588 | 26223 ft | 474 kts | 105° |